createdAt,value
2019-04-27T00:01:05.145Z,84.70
2019-04-27T00:03:46.790Z,84.40
2019-04-27T00:06:20.991Z,84.40
2019-04-27T00:08:53.516Z,84.20
2019-04-27T00:11:24.904Z,84.70
2019-04-27T00:13:54.642Z,85.40
2019-04-27T00:16:28.859Z,86.40
2019-04-27T00:19:16.577Z,86.40
2019-04-27T00:21:47.822Z,85.70
2019-04-27T00:24:19.502Z,84.20
2019-04-27T00:26:49.205Z,83.90
2019-04-27T00:29:19.936Z,83.20
2019-04-27T00:31:49.545Z,82.60
2019-04-27T00:34:20.257Z,83.70
2019-04-27T00:37:10.543Z,83.80
2019-04-27T00:39:47.451Z,81.10
2019-04-27T00:42:17.061Z,83.00
2019-04-27T00:44:46.768Z,82.70
2019-04-27T00:47:16.450Z,81.80
2019-04-27T00:49:46.189Z,81.60
2019-04-27T00:52:15.796Z,81.10
2019-04-27T00:54:45.478Z,81.40
2019-04-27T00:57:34.216Z,80.20
2019-04-27T01:00:18.524Z,81.90
2019-04-27T01:02:53.604Z,80.30
2019-04-27T01:05:25.075Z,81.10
2019-04-27T01:07:55.670Z,81.50
2019-04-27T01:10:25.451Z,81.60
2019-04-27T01:12:55.156Z,82.60
2019-04-27T01:15:25.859Z,84.20
2019-04-27T01:18:09.571Z,84.00
2019-04-27T01:20:28.415Z,85.40
2019-04-27T01:22:59.460Z,85.70
2019-04-27T01:25:30.875Z,86.00
2019-04-27T01:28:14.409Z,85.00
2019-04-27T01:30:45.627Z,85.50
2019-04-27T01:33:15.255Z,86.20
2019-04-27T01:35:44.974Z,86.90
2019-04-27T01:38:14.687Z,86.60
2019-04-27T01:40:44.262Z,88.00
2019-04-27T01:43:14.004Z,87.20
2019-04-27T01:45:43.683Z,87.10
2019-04-27T01:48:22.935Z,88.10
2019-04-27T01:50:44.566Z,88.70
2019-04-27T01:53:14.246Z,89.50
2019-04-27T01:55:43.987Z,89.70
2019-04-27T01:58:13.596Z,90.20
2019-04-27T02:01:01.299Z,90.60
2019-04-27T02:03:48.973Z,91.30
2019-04-27T02:06:19.081Z,91.30
2019-04-27T02:08:49.987Z,91.50
2019-04-27T02:11:19.728Z,91.60
2019-04-27T02:13:51.000Z,91.40
2019-04-27T02:16:21.780Z,91.70
2019-04-27T02:18:52.410Z,91.60
2019-04-27T02:21:22.152Z,91.70
2019-04-27T02:23:51.759Z,91.80
2019-04-27T02:26:22.976Z,91.90
2019-04-27T02:29:10.840Z,91.90
2019-04-27T02:31:42.267Z,91.70
2019-04-27T02:34:22.521Z,92.10
2019-04-27T02:36:52.260Z,91.90
2019-04-27T02:39:21.969Z,92.00
2019-04-27T02:41:51.938Z,91.50
2019-04-27T02:44:30.137Z,91.60
2019-04-27T02:47:00.472Z,91.30
2019-04-27T02:49:31.378Z,91.80
2019-04-27T02:52:05.275Z,91.80
2019-04-27T02:54:34.975Z,92.30
2019-04-27T02:57:04.582Z,92.50
2019-04-27T02:59:34.263Z,92.30
2019-04-27T03:02:11.755Z,92.10
2019-04-27T03:04:41.500Z,91.90
2019-04-27T03:07:11.594Z,91.90
2019-04-27T03:09:41.446Z,92.00
2019-04-27T03:12:14.536Z,91.70
2019-04-27T03:14:50.371Z,91.80
2019-04-27T03:17:22.738Z,92.10
2019-04-27T03:19:53.651Z,91.90
2019-04-27T03:22:40.088Z,92.10
2019-04-27T03:25:14.891Z,92.10
2019-04-27T03:27:47.187Z,91.60
2019-04-27T03:30:22.487Z,91.70
2019-04-27T03:32:54.916Z,90.50
2019-04-27T03:35:22.769Z,90.90
2019-04-27T03:37:52.683Z,91.30
2019-04-27T03:40:24.209Z,91.40
2019-04-27T03:42:55.451Z,91.80
2019-04-27T03:45:25.087Z,91.30
2019-04-27T03:47:55.688Z,91.10
2019-04-27T03:50:33.010Z,91.40
2019-04-27T03:53:20.579Z,91.70
2019-04-27T03:55:51.883Z,91.70
2019-04-27T03:58:23.117Z,91.50
2019-04-27T04:00:54.068Z,91.40
2019-04-27T04:03:23.675Z,91.10
2019-04-27T04:05:53.384Z,91.30
2019-04-27T04:08:22.964Z,91.20
2019-04-27T04:10:59.633Z,91.50
2019-04-27T04:13:34.987Z,91.10
2019-04-27T04:16:11.085Z,91.30
2019-04-27T04:18:56.808Z,91.20
2019-04-27T04:21:26.564Z,91.30
2019-04-27T04:23:56.178Z,91.20
2019-04-27T04:26:25.883Z,91.40
2019-04-27T04:28:55.459Z,91.40
2019-04-27T04:31:25.200Z,90.80
2019-04-27T04:33:54.808Z,91.20
2019-04-27T04:36:24.517Z,91.40
2019-04-27T04:38:54.227Z,91.10
2019-04-27T04:41:43.654Z,91.20
2019-04-27T04:44:25.495Z,91.40
2019-04-27T04:47:02.474Z,91.40
2019-04-27T04:49:32.086Z,91.30
2019-04-27T04:52:01.765Z,91.20
2019-04-27T04:54:31.404Z,91.50
2019-04-27T04:57:01.111Z,91.50
2019-04-27T04:59:30.689Z,91.30
2019-04-27T05:02:02.368Z,91.20
2019-04-27T05:04:31.674Z,91.50
2019-04-27T05:07:02.358Z,91.60
2019-04-27T05:09:32.017Z,91.50
2019-04-27T05:12:01.701Z,91.90
2019-04-27T05:14:33.123Z,92.10
2019-04-27T05:17:03.808Z,92.00
2019-04-27T05:19:33.695Z,91.70
2019-04-27T05:22:03.331Z,91.40
2019-04-27T05:24:33.012Z,91.20
2019-04-27T05:27:03.597Z,91.70
2019-04-27T05:29:33.383Z,91.30
2019-04-27T05:32:02.991Z,91.50
2019-04-27T05:34:32.650Z,91.70
2019-04-27T05:37:02.259Z,92.00
2019-04-27T05:39:31.942Z,91.50
2019-04-27T05:42:02.579Z,91.60
2019-04-27T05:44:59.056Z,91.80
2019-04-27T05:47:30.487Z,91.50
2019-04-27T05:50:01.703Z,91.30
2019-04-27T05:52:31.342Z,91.80
2019-04-27T05:55:02.045Z,91.60
2019-04-27T05:57:33.388Z,91.70
2019-04-27T06:00:04.383Z,91.30
2019-04-27T06:02:34.042Z,91.40
2019-04-27T06:05:04.601Z,91.90
2019-04-27T06:07:34.283Z,92.00
2019-04-27T06:10:04.226Z,92.10
2019-04-27T06:12:33.937Z,91.80
2019-04-27T06:15:03.723Z,91.90
2019-04-27T06:17:35.174Z,91.50
2019-04-27T06:20:06.244Z,91.90
2019-04-27T06:22:39.047Z,92.00
2019-04-27T06:25:07.212Z,92.30
2019-04-27T06:27:36.908Z,92.50
2019-04-27T06:30:09.217Z,92.30
2019-04-27T06:32:39.552Z,92.50
2019-04-27T06:35:12.252Z,92.40
2019-04-27T06:37:40.766Z,92.50
2019-04-27T06:40:10.855Z,92.70
2019-04-27T06:42:40.464Z,93.10
2019-04-27T06:45:10.203Z,93.10
2019-04-27T06:47:41.430Z,92.60
2019-04-27T06:50:13.185Z,93.20
2019-04-27T06:52:42.507Z,93.10
2019-04-27T06:55:12.217Z,92.80
2019-04-27T06:57:41.795Z,92.90
2019-04-27T07:00:12.817Z,93.30
2019-04-27T07:02:42.446Z,93.60
2019-04-27T07:05:12.156Z,93.60
2019-04-27T07:07:41.791Z,93.40
2019-04-27T07:10:11.505Z,93.40
2019-04-27T07:12:41.271Z,93.40
2019-04-27T07:15:12.151Z,93.40
2019-04-27T07:17:41.833Z,93.10
2019-04-27T07:20:13.229Z,92.90
2019-04-27T07:22:42.919Z,92.60
2019-04-27T07:25:12.629Z,93.70
2019-04-27T07:27:42.342Z,93.60
2019-04-27T07:30:12.884Z,93.10
2019-04-27T07:32:42.580Z,92.70
2019-04-27T07:35:12.259Z,92.40
2019-04-27T07:37:41.896Z,91.40
2019-04-27T07:40:12.631Z,91.80
2019-04-27T07:42:46.009Z,91.90
2019-04-27T07:45:16.731Z,91.40
2019-04-27T07:47:49.255Z,91.20
2019-04-27T07:50:19.424Z,91.10
2019-04-27T07:52:49.139Z,91.40
2019-04-27T07:55:18.881Z,91.50
2019-04-27T07:57:49.446Z,91.20
2019-04-27T08:00:19.629Z,91.80
2019-04-27T08:02:49.237Z,91.20
2019-04-27T08:05:19.264Z,90.00
2019-04-27T08:07:49.254Z,87.90
2019-04-27T08:10:20.078Z,90.30
2019-04-27T08:12:49.940Z,89.80
2019-04-27T08:15:19.741Z,87.90
2019-04-27T08:17:49.440Z,87.10
2019-04-27T08:20:21.106Z,88.90
2019-04-27T08:22:50.474Z,85.90
2019-04-27T08:25:20.183Z,83.10
2019-04-27T08:27:51.458Z,83.90
2019-04-27T08:30:22.707Z,82.60
2019-04-27T08:32:54.053Z,82.00
2019-04-27T08:35:23.734Z,82.50
2019-04-27T08:37:53.472Z,82.00
2019-04-27T08:40:24.900Z,80.80
2019-04-27T08:42:55.831Z,81.40
2019-04-27T08:45:25.648Z,81.80
2019-04-27T08:47:55.355Z,84.00
2019-04-27T08:50:28.488Z,77.10
2019-04-27T08:52:56.343Z,79.60
2019-04-27T08:55:26.051Z,78.30
2019-04-27T08:57:55.761Z,78.50
2019-04-27T09:00:25.471Z,79.00
2019-04-27T09:02:55.180Z,76.00
2019-04-27T09:05:28.974Z,73.80
2019-04-27T09:08:00.438Z,74.20
2019-04-27T09:10:38.811Z,76.10
2019-04-27T09:13:19.553Z,76.60
2019-04-27T09:15:53.740Z,73.10
2019-04-27T09:18:25.979Z,70.20
2019-04-27T09:21:02.268Z,70.80
2019-04-27T09:23:31.879Z,72.60
2019-04-27T09:26:03.339Z,70.90
2019-04-27T09:28:33.038Z,73.90
2019-04-27T09:31:02.724Z,74.30
2019-04-27T09:33:32.327Z,76.30
2019-04-27T09:36:02.999Z,77.00
2019-04-27T09:38:32.698Z,72.90
2019-04-27T09:41:02.305Z,68.40
2019-04-27T09:43:31.987Z,67.20
2019-04-27T09:46:01.725Z,64.40
2019-04-27T09:48:31.435Z,65.20
2019-04-27T09:51:01.145Z,69.70
2019-04-27T09:53:30.827Z,68.50
2019-04-27T09:56:00.540Z,69.90
2019-04-27T09:58:30.247Z,69.10
2019-04-27T10:00:59.985Z,68.90
2019-04-27T10:03:29.696Z,70.90
2019-04-27T10:06:01.115Z,73.00
2019-04-27T10:08:30.727Z,75.20
2019-04-27T10:11:00.362Z,79.10
2019-04-27T10:13:30.072Z,75.70
2019-04-27T10:15:59.755Z,82.20
2019-04-27T10:18:29.389Z,83.10
2019-04-27T10:21:02.062Z,83.40
2019-04-27T10:23:32.086Z,77.00
2019-04-27T10:26:02.853Z,77.80
2019-04-27T10:28:32.505Z,77.70
2019-04-27T10:31:02.241Z,73.20
2019-04-27T10:33:32.873Z,66.30
2019-04-27T10:36:02.554Z,66.90
2019-04-27T10:38:32.339Z,61.30
2019-04-27T10:41:02.105Z,67.30
2019-04-27T10:43:31.816Z,60.80
2019-04-27T10:46:01.526Z,64.30
2019-04-27T10:48:31.239Z,59.60
2019-04-27T10:51:02.684Z,56.30
2019-04-27T10:53:33.351Z,60.10
2019-04-27T10:56:02.999Z,57.10
2019-04-27T10:58:32.739Z,54.00
2019-04-27T11:01:05.476Z,50.30
2019-04-27T11:03:57.588Z,55.10
2019-04-27T11:06:31.260Z,55.50
2019-04-27T11:09:00.968Z,54.00
2019-04-27T11:11:32.214Z,52.60
2019-04-27T11:14:01.927Z,52.00
2019-04-27T11:16:32.761Z,50.00
2019-04-27T11:19:02.339Z,48.30
2019-04-27T11:21:33.174Z,48.10
2019-04-27T11:24:02.813Z,48.50
2019-04-27T11:26:32.524Z,44.70
2019-04-27T11:29:02.234Z,43.90
2019-04-27T11:31:31.915Z,45.40
2019-04-27T11:34:01.576Z,45.10
2019-04-27T11:36:32.822Z,44.00
2019-04-27T11:39:03.965Z,47.30
2019-04-27T11:41:35.190Z,48.40
2019-04-27T11:44:04.922Z,49.00
2019-04-27T11:46:34.603Z,48.10
2019-04-27T11:49:04.341Z,47.00
2019-04-27T11:51:34.052Z,47.40
2019-04-27T11:54:03.764Z,46.60
2019-04-27T11:56:36.176Z,45.30
2019-04-27T11:59:04.820Z,45.20
2019-04-27T12:01:35.816Z,47.60
2019-04-27T12:04:05.899Z,45.00
2019-04-27T12:06:35.943Z,45.30
2019-04-27T12:09:06.737Z,42.50
2019-04-27T12:11:36.950Z,41.60
2019-04-27T12:14:06.567Z,41.40
2019-04-27T12:16:36.285Z,39.00
2019-04-27T12:19:06.585Z,41.30
2019-04-27T12:21:36.523Z,42.90
2019-04-27T12:24:07.935Z,42.00
2019-04-27T12:26:39.209Z,45.20
2019-04-27T12:29:10.453Z,46.80
2019-04-27T12:31:44.941Z,48.60
2019-04-27T12:34:12.920Z,49.20
2019-04-27T12:36:42.656Z,52.60
2019-04-27T12:39:12.643Z,53.20
2019-04-27T12:41:42.499Z,52.60
2019-04-27T12:44:12.197Z,52.40
2019-04-27T12:46:41.805Z,52.50
2019-04-27T12:49:26.182Z,52.50
2019-04-27T12:51:55.971Z,53.40
2019-04-27T12:54:36.320Z,54.00
2019-04-27T12:57:26.214Z,51.20
2019-04-27T12:59:59.793Z,50.30
2019-04-27T13:02:31.063Z,49.40
2019-04-27T13:05:00.746Z,51.10
2019-04-27T13:07:30.351Z,53.50
2019-04-27T13:10:00.090Z,48.50
2019-04-27T13:12:29.799Z,46.40
2019-04-27T13:14:59.509Z,43.00
2019-04-27T13:17:29.122Z,46.50
2019-04-27T13:19:58.826Z,46.50
2019-04-27T13:22:28.537Z,47.60
2019-04-27T13:24:58.251Z,47.80
2019-04-27T13:27:27.963Z,42.40
2019-04-27T13:29:57.668Z,41.90
2019-04-27T13:32:27.385Z,43.60
2019-04-27T13:34:57.059Z,39.10
2019-04-27T13:37:33.967Z,43.80
2019-04-27T13:40:07.159Z,43.00
2019-04-27T13:42:38.317Z,45.60
2019-04-27T13:45:09.342Z,44.40
2019-04-27T13:47:46.631Z,48.10
2019-04-27T13:50:17.884Z,48.50
2019-04-27T13:52:47.586Z,47.50
2019-04-27T13:55:17.194Z,45.80
2019-04-27T13:57:50.342Z,39.90
2019-04-27T14:00:18.151Z,39.40
2019-04-27T14:02:49.559Z,40.90
2019-04-27T14:05:19.208Z,39.80
2019-04-27T14:07:49.941Z,37.50
2019-04-27T14:10:20.336Z,37.40
2019-04-27T14:12:50.287Z,35.00
2019-04-27T14:15:19.995Z,34.50
2019-04-27T14:17:50.074Z,36.70
2019-04-27T14:20:19.813Z,35.70
2019-04-27T14:22:49.840Z,32.10
2019-04-27T14:25:19.552Z,35.50
2019-04-27T14:27:49.164Z,34.50
2019-04-27T14:30:19.074Z,32.40
2019-04-27T14:32:48.655Z,31.20
2019-04-27T14:35:18.494Z,31.10
2019-04-27T14:37:50.157Z,33.90
2019-04-27T14:40:20.547Z,35.10
2019-04-27T14:42:52.141Z,36.50
2019-04-27T14:45:21.637Z,36.30
2019-04-27T14:47:53.050Z,38.50
2019-04-27T14:50:22.696Z,40.10
2019-04-27T14:52:52.404Z,41.20
2019-04-27T14:55:22.088Z,40.50
2019-04-27T14:57:51.824Z,43.60
2019-04-27T15:00:22.150Z,43.70
2019-04-27T15:02:51.859Z,46.20
2019-04-27T15:05:22.440Z,46.80
2019-04-27T15:07:52.485Z,45.00
2019-04-27T15:10:22.221Z,46.20
2019-04-27T15:12:51.929Z,46.80
2019-04-27T15:15:23.275Z,46.70
2019-04-27T15:17:52.855Z,43.30
2019-04-27T15:20:41.571Z,44.40
2019-04-27T15:23:10.531Z,46.10
2019-04-27T15:25:45.189Z,46.20
2019-04-27T15:28:16.198Z,46.70
2019-04-27T15:30:54.306Z,46.60
2019-04-27T15:33:41.942Z,47.30
2019-04-27T15:36:25.164Z,49.00
2019-04-27T15:38:58.505Z,49.00
2019-04-27T15:41:31.533Z,51.80
2019-04-27T15:44:05.698Z,50.10
2019-04-27T15:46:34.952Z,46.50
2019-04-27T15:49:08.072Z,45.80
2019-04-27T15:51:38.101Z,46.40
2019-04-27T15:54:07.777Z,46.80
2019-04-27T15:56:37.486Z,47.00
2019-04-27T15:59:08.666Z,46.30
2019-04-27T16:01:39.560Z,48.40
2019-04-27T16:04:11.171Z,47.10
2019-04-27T16:06:42.894Z,46.70
2019-04-27T16:09:21.719Z,46.90
2019-04-27T16:11:50.054Z,50.00
2019-04-27T16:14:18.975Z,49.10
2019-04-27T16:16:48.834Z,48.60
2019-04-27T16:19:18.584Z,50.40
2019-04-27T16:21:54.120Z,52.30
2019-04-27T16:24:21.179Z,50.40
2019-04-27T16:26:52.169Z,48.60
2019-04-27T16:29:23.181Z,48.80
2019-04-27T16:31:54.484Z,49.00
2019-04-27T16:34:24.233Z,49.70
2019-04-27T16:36:53.942Z,49.60
2019-04-27T16:39:23.652Z,49.90
2019-04-27T16:41:54.313Z,51.70
2019-04-27T16:44:24.096Z,50.90
2019-04-27T16:46:53.703Z,50.40
2019-04-27T16:49:24.511Z,49.00
2019-04-27T16:51:54.251Z,52.20
2019-04-27T16:54:24.035Z,50.60
2019-04-27T16:57:02.438Z,51.10
2019-04-27T16:59:40.990Z,51.40
2019-04-27T17:01:57.399Z,53.10
2019-04-27T17:04:27.104Z,55.20
2019-04-27T17:06:58.659Z,54.30
2019-04-27T17:09:29.196Z,53.50
2019-04-27T17:11:59.362Z,54.60
2019-04-27T17:14:35.101Z,53.40
2019-04-27T17:17:10.688Z,54.10
2019-04-27T17:19:43.724Z,53.90
2019-04-27T17:22:14.775Z,54.10
2019-04-27T17:24:46.848Z,55.00
2019-04-27T17:27:21.204Z,53.80
2019-04-27T17:29:49.990Z,54.30
2019-04-27T17:32:20.535Z,55.90
2019-04-27T17:34:50.237Z,55.10
2019-04-27T17:37:25.187Z,53.70
2019-04-27T17:39:53.581Z,55.10
2019-04-27T17:42:26.914Z,53.50
2019-04-27T17:44:59.098Z,54.80
2019-04-27T17:47:26.607Z,54.30
2019-04-27T17:49:58.275Z,54.60
2019-04-27T17:52:27.731Z,57.60
2019-04-27T17:54:59.130Z,64.50
2019-04-27T17:57:30.126Z,69.30
2019-04-27T18:00:03.238Z,71.00
2019-04-27T18:02:33.704Z,74.40
2019-04-27T18:05:05.163Z,76.40
2019-04-27T18:07:39.612Z,75.20
2019-04-27T18:10:08.650Z,75.50
2019-04-27T18:12:38.109Z,78.80
2019-04-27T18:15:10.437Z,77.00
2019-04-27T18:17:47.816Z,76.60
2019-04-27T18:20:13.589Z,74.70
2019-04-27T18:22:49.024Z,76.50
2019-04-27T18:25:18.845Z,79.10
2019-04-27T18:27:56.107Z,79.40
2019-04-27T18:30:28.187Z,80.30
2019-04-27T18:32:59.209Z,85.70
2019-04-27T18:35:29.690Z,87.40
2019-04-27T18:38:01.791Z,86.60
2019-04-27T18:40:32.458Z,89.40
2019-04-27T18:43:05.938Z,90.60
2019-04-27T18:45:33.327Z,90.70
2019-04-27T18:48:06.564Z,90.80
2019-04-27T18:50:43.630Z,90.70
2019-04-27T18:53:16.455Z,89.60
2019-04-27T18:55:45.471Z,89.60
2019-04-27T18:58:15.081Z,90.40
2019-04-27T19:00:45.816Z,89.00
2019-04-27T19:03:15.392Z,88.30
2019-04-27T19:05:45.132Z,87.40
2019-04-27T19:08:17.804Z,89.40
2019-04-27T19:10:47.112Z,86.90
2019-04-27T19:13:16.720Z,88.30
2019-04-27T19:15:46.431Z,89.00
2019-04-27T19:18:16.111Z,88.10
2019-04-27T19:20:45.749Z,90.00
2019-04-27T19:23:15.352Z,90.20
2019-04-27T19:25:48.176Z,89.30
2019-04-27T19:28:22.428Z,88.20
2019-04-27T19:30:57.649Z,88.20
2019-04-27T19:33:30.379Z,90.10
2019-04-27T19:36:00.852Z,90.50
2019-04-27T19:38:30.512Z,90.40
2019-04-27T19:41:00.092Z,90.80
2019-04-27T19:43:29.903Z,90.00
2019-04-27T19:46:00.513Z,91.00
2019-04-27T19:48:30.274Z,91.50
2019-04-27T19:51:00.271Z,91.30
2019-04-27T19:53:30.075Z,91.30
2019-04-27T19:56:02.447Z,90.70
2019-04-27T19:58:33.930Z,90.80
2019-04-27T20:01:14.227Z,90.90
2019-04-27T20:03:50.142Z,90.60
2019-04-27T20:06:19.749Z,90.20
2019-04-27T20:08:50.996Z,90.30
2019-04-27T20:11:20.603Z,90.40
2019-04-27T20:13:50.636Z,90.90
2019-04-27T20:16:21.560Z,90.00
2019-04-27T20:18:51.634Z,89.20
2019-04-27T20:21:21.435Z,90.00
2019-04-27T20:23:51.203Z,90.20
2019-04-27T20:26:20.855Z,90.60
2019-04-27T20:28:52.353Z,90.40
2019-04-27T20:31:21.971Z,90.40
2019-04-27T20:33:53.906Z,90.30
2019-04-27T20:36:23.952Z,88.40
2019-04-27T20:38:53.630Z,89.50
2019-04-27T20:41:23.370Z,88.10
2019-04-27T20:43:54.052Z,90.00
2019-04-27T20:46:23.819Z,89.60
2019-04-27T20:48:53.391Z,89.10
2019-04-27T20:51:24.640Z,87.90
2019-04-27T20:53:55.918Z,85.80
2019-04-27T20:56:25.594Z,86.50
2019-04-27T20:58:55.233Z,88.10
2019-04-27T21:01:24.912Z,89.10
2019-04-27T21:03:56.188Z,88.50
2019-04-27T21:06:33.884Z,89.80
2019-04-27T21:09:05.030Z,89.10
2019-04-27T21:11:46.515Z,89.10
2019-04-27T21:14:16.123Z,90.30
2019-04-27T21:16:46.813Z,89.70
2019-04-27T21:19:16.435Z,89.00
2019-04-27T21:21:46.148Z,89.60
2019-04-27T21:24:15.784Z,90.10
2019-04-27T21:26:45.383Z,90.10
2019-04-27T21:29:15.072Z,88.80
2019-04-27T21:31:44.813Z,89.10
2019-04-27T21:34:14.521Z,89.60
2019-04-27T21:36:44.230Z,88.50
2019-04-27T21:39:13.838Z,88.10
2019-04-27T21:41:43.755Z,89.00
2019-04-27T21:44:13.331Z,87.30
2019-04-27T21:46:43.070Z,86.90
2019-04-27T21:49:12.901Z,86.00
2019-04-27T21:52:01.380Z,85.00
2019-04-27T21:54:35.012Z,83.90
2019-04-27T21:57:04.746Z,84.30
2019-04-27T21:59:35.451Z,85.20
2019-04-27T22:02:06.627Z,85.60
2019-04-27T22:04:36.333Z,84.90
2019-04-27T22:07:05.942Z,84.70
2019-04-27T22:09:35.626Z,86.10
2019-04-27T22:12:05.569Z,85.50
2019-04-27T22:14:35.277Z,85.20
2019-04-27T22:17:04.884Z,86.00
2019-04-27T22:19:35.616Z,86.20
2019-04-27T22:22:06.864Z,85.00
2019-04-27T22:24:38.117Z,86.80
2019-04-27T22:27:07.720Z,86.50
2019-04-27T22:29:37.430Z,86.80
2019-04-27T22:32:08.864Z,87.40
2019-04-27T22:34:38.488Z,87.50
2019-04-27T22:37:08.198Z,87.10
2019-04-27T22:39:42.493Z,87.10
2019-04-27T22:42:13.762Z,85.40
2019-04-27T22:44:44.978Z,85.30
2019-04-27T22:47:14.687Z,84.90
2019-04-27T22:49:44.326Z,85.10
2019-04-27T22:52:14.997Z,84.90
2019-04-27T22:54:44.666Z,84.50
2019-04-27T22:57:15.883Z,85.20
2019-04-27T23:00:03.737Z,85.40
2019-04-27T23:02:36.531Z,83.80
2019-04-27T23:05:07.208Z,84.90
2019-04-27T23:07:36.948Z,84.90
2019-04-27T23:10:07.372Z,85.90
2019-04-27T23:12:37.082Z,87.00
2019-04-27T23:15:08.464Z,86.20
2019-04-27T23:17:54.832Z,86.40
2019-04-27T23:20:24.469Z,85.20
2019-04-27T23:22:54.178Z,87.40
2019-04-27T23:25:23.858Z,84.90
2019-04-27T23:27:53.470Z,86.00
2019-04-27T23:30:26.623Z,85.00
2019-04-27T23:32:57.043Z,85.40
2019-04-27T23:35:28.413Z,86.10
2019-04-27T23:37:58.073Z,85.80
2019-04-27T23:40:27.782Z,85.20
2019-04-27T23:42:57.390Z,84.80
2019-04-27T23:45:27.071Z,84.00
2019-04-27T23:47:56.690Z,79.50
2019-04-27T23:50:27.925Z,80.30
2019-04-27T23:53:01.885Z,80.90
2019-04-27T23:58:23.298Z,83.50
